createdAt,value
2018-06-10T00:01:44.764Z,97701.63
2018-06-10T00:04:20.704Z,97699.63
2018-06-10T00:06:56.316Z,97702.09
2018-06-10T00:09:31.886Z,97695.89
2018-06-10T00:12:07.616Z,97699.84
2018-06-10T00:14:43.106Z,97692.27
2018-06-10T00:17:18.535Z,97697.30
2018-06-10T00:19:55.254Z,97694.48
2018-06-10T00:22:32.255Z,97693.34
2018-06-10T00:25:09.500Z,97683.94
2018-06-10T00:27:46.158Z,97680.57
2018-06-10T00:30:23.711Z,97675.30
2018-06-10T00:33:00.824Z,97673.81
2018-06-10T00:35:37.418Z,97667.02
2018-06-10T00:38:13.878Z,97666.95
2018-06-10T00:40:50.160Z,97661.38
2018-06-10T00:43:25.658Z,97662.51
2018-06-10T00:46:01.168Z,97655.30
2018-06-10T00:48:36.632Z,97646.09
2018-06-10T00:51:12.058Z,97648.19
2018-06-10T00:53:47.573Z,97645.53
2018-06-10T00:56:57.751Z,97644.28
2018-06-10T00:59:34.315Z,97645.41
2018-06-10T01:02:10.008Z,97647.14
2018-06-10T01:04:45.549Z,97653.01
2018-06-10T01:07:21.087Z,97651.98
2018-06-10T01:09:56.537Z,97645.33
2018-06-10T01:12:32.131Z,97636.16
2018-06-10T01:15:08.451Z,97638.36
2018-06-10T01:17:44.083Z,97634.62
2018-06-10T01:20:19.469Z,97636.23
2018-06-10T01:22:55.128Z,97638.38
2018-06-10T01:25:30.698Z,97643.20
2018-06-10T01:28:06.183Z,97641.30
2018-06-10T01:30:41.524Z,97644.04
2018-06-10T01:33:17.047Z,97645.96
2018-06-10T01:35:52.459Z,97641.20
2018-06-10T01:38:28.033Z,97640.17
2018-06-10T01:41:03.669Z,97646.25
2018-06-10T01:43:39.344Z,97639.76
2018-06-10T01:46:14.959Z,97639.49
2018-06-10T01:48:50.424Z,97652.84
2018-06-10T01:51:25.976Z,97652.80
2018-06-10T01:54:01.403Z,97655.23
2018-06-10T01:56:36.840Z,97658.16
2018-06-10T01:59:12.163Z,97655.34
2018-06-10T02:01:49.198Z,97651.16
2018-06-10T02:04:26.698Z,97641.75
2018-06-10T02:07:02.674Z,97644.06
2018-06-10T02:09:38.264Z,97646.63
2018-06-10T02:12:13.672Z,97646.20
2018-06-10T02:14:49.189Z,97642.51
2018-06-10T02:17:24.616Z,97647.45
2018-06-10T02:20:00.121Z,97646.17
2018-06-10T02:22:35.714Z,97647.69
2018-06-10T02:25:11.055Z,97651.16
2018-06-10T02:27:46.487Z,97651.92
2018-06-10T02:30:22.109Z,97649.43
2018-06-10T02:32:57.869Z,97652.42
2018-06-10T02:35:33.729Z,97654.09
2018-06-10T02:38:09.247Z,97653.52
2018-06-10T02:40:44.857Z,97658.94
2018-06-10T02:43:20.465Z,97653.48
2018-06-10T02:45:55.959Z,97657.42
2018-06-10T02:48:31.798Z,97649.11
2018-06-10T02:51:07.257Z,97649.38
2018-06-10T02:53:42.835Z,97646.75
2018-06-10T02:56:18.597Z,97644.92
2018-06-10T02:58:54.143Z,97636.64
2018-06-10T03:01:29.697Z,97644.19
2018-06-10T03:04:05.244Z,97644.82
2018-06-10T03:06:40.635Z,97655.16
2018-06-10T03:09:16.201Z,97652.17
2018-06-10T03:11:51.579Z,97656.48
2018-06-10T03:14:27.031Z,97652.77
2018-06-10T03:17:02.743Z,97652.91
2018-06-10T03:19:38.044Z,97651.63
2018-06-10T03:22:13.494Z,97657.05
2018-06-10T03:24:48.968Z,97655.83
2018-06-10T03:27:24.376Z,97653.03
2018-06-10T03:29:59.673Z,97664.65
2018-06-10T03:32:35.318Z,97663.52
2018-06-10T03:35:10.881Z,97660.04
2018-06-10T03:37:46.895Z,97663.61
2018-06-10T03:40:22.545Z,97666.61
2018-06-10T03:42:58.344Z,97672.27
2018-06-10T03:45:34.098Z,97672.43
2018-06-10T03:48:09.743Z,97676.37
2018-06-10T03:50:45.192Z,97674.98
2018-06-10T03:53:20.584Z,97678.93
2018-06-10T03:55:56.196Z,97683.84
2018-06-10T03:58:32.012Z,97681.95
2018-06-10T04:01:07.599Z,97683.55
2018-06-10T04:03:43.090Z,97683.77
2018-06-10T04:06:18.607Z,97684.66
2018-06-10T04:08:53.895Z,97684.52
2018-06-10T04:11:29.292Z,97679.42
2018-06-10T04:14:04.638Z,97683.08
2018-06-10T04:16:40.033Z,97685.56
2018-06-10T04:19:15.600Z,97689.86
2018-06-10T04:21:51.008Z,97686.31
2018-06-10T04:24:26.644Z,97687.78
2018-06-10T04:27:02.215Z,97687.13
2018-06-10T04:29:37.622Z,97681.61
2018-06-10T04:32:13.452Z,97682.24
2018-06-10T04:34:49.733Z,97684.16
2018-06-10T04:37:25.370Z,97686.11
2018-06-10T04:40:00.938Z,97686.18
2018-06-10T04:42:36.439Z,97685.52
2018-06-10T04:45:12.206Z,97680.27
2018-06-10T04:47:47.684Z,97677.37
2018-06-10T04:50:23.233Z,97680.34
2018-06-10T04:52:58.834Z,97685.98
2018-06-10T04:55:34.302Z,97684.27
2018-06-10T04:58:09.839Z,97680.85
2018-06-10T05:00:45.472Z,97671.36
2018-06-10T05:03:21.184Z,97672.75
2018-06-10T05:05:56.792Z,97676.95
2018-06-10T05:08:32.682Z,97673.25
2018-06-10T05:11:08.548Z,97677.27
2018-06-10T05:13:43.885Z,97674.70
2018-06-10T05:16:19.294Z,97682.77
2018-06-10T05:18:54.835Z,97679.77
2018-06-10T05:21:30.576Z,97682.91
2018-06-10T05:24:06.795Z,97686.87
2018-06-10T05:26:42.756Z,97690.02
2018-06-10T05:29:23.892Z,97692.84
2018-06-10T05:31:59.613Z,97701.04
2018-06-10T05:34:35.422Z,97702.95
2018-06-10T05:37:11.052Z,97708.83
2018-06-10T05:39:46.739Z,97714.69
2018-06-10T05:42:22.268Z,97720.92
2018-06-10T05:44:58.323Z,97717.23
2018-06-10T05:47:33.940Z,97718.64
2018-06-10T05:50:09.438Z,97718.89
2018-06-10T05:52:45.213Z,97719.36
2018-06-10T05:55:20.678Z,97710.84
2018-06-10T05:57:56.492Z,97719.09
2018-06-10T06:00:32.221Z,97711.99
2018-06-10T06:03:07.806Z,97712.59
2018-06-10T06:05:43.400Z,97717.30
2018-06-10T06:08:18.897Z,97717.44
2018-06-10T06:10:54.635Z,97713.95
2018-06-10T06:13:29.950Z,97715.83
2018-06-10T06:16:05.514Z,97709.11
2018-06-10T06:18:41.164Z,97712.03
2018-06-10T06:21:16.656Z,97709.03
2018-06-10T06:23:52.484Z,97704.86
2018-06-10T06:26:28.188Z,97710.77
2018-06-10T06:29:03.473Z,97709.86
2018-06-10T06:31:39.227Z,97712.27
2018-06-10T06:34:15.021Z,97701.45
2018-06-10T06:36:50.891Z,97703.59
2018-06-10T06:39:26.752Z,97703.85
2018-06-10T06:42:02.563Z,97703.39
2018-06-10T06:44:38.463Z,97705.07
2018-06-10T06:47:14.341Z,97704.37
2018-06-10T06:49:51.324Z,97695.71
2018-06-10T06:52:29.916Z,97696.13
2018-06-10T06:55:07.341Z,97698.92
2018-06-10T06:57:44.425Z,97694.28
2018-06-10T07:00:20.781Z,97691.91
2018-06-10T07:02:58.176Z,97690.06
2018-06-10T07:05:34.985Z,97699.66
2018-06-10T07:08:10.753Z,97698.38
2018-06-10T07:10:46.797Z,97695.54
2018-06-10T07:13:22.929Z,97693.20
2018-06-10T07:15:59.900Z,97688.73
2018-06-10T07:18:36.388Z,97687.30
2018-06-10T07:21:13.098Z,97687.33
2018-06-10T07:23:49.929Z,97686.09
2018-06-10T07:26:26.371Z,97690.62
2018-06-10T07:29:05.138Z,97683.92
2018-06-10T07:31:42.923Z,97678.00
2018-06-10T07:34:19.576Z,97673.78
2018-06-10T07:36:55.716Z,97672.50
2018-06-10T07:39:34.155Z,97676.72
2018-06-10T07:42:11.861Z,97673.05
2018-06-10T07:44:50.248Z,97669.41
2018-06-10T07:47:27.408Z,97669.77
2018-06-10T07:50:08.531Z,97668.64
2018-06-10T07:52:44.206Z,97664.93
2018-06-10T07:55:19.708Z,97664.79
2018-06-10T07:57:55.168Z,97654.16
2018-06-10T08:00:30.967Z,97658.63
2018-06-10T08:03:06.560Z,97662.88
2018-06-10T08:05:42.395Z,97662.52
2018-06-10T08:08:18.752Z,97662.80
2018-06-10T08:10:54.782Z,97657.45
2018-06-10T08:13:30.388Z,97648.89
2018-06-10T08:16:05.829Z,97656.57
2018-06-10T08:18:41.746Z,97647.63
2018-06-10T08:21:17.232Z,97648.45
2018-06-10T08:23:56.585Z,97633.02
2018-06-10T08:26:32.972Z,97648.86
2018-06-10T08:29:08.925Z,97654.04
2018-06-10T08:31:47.646Z,97648.22
2018-06-10T08:34:23.606Z,97649.31
2018-06-10T08:36:59.302Z,97640.87
2018-06-10T08:39:34.984Z,97640.38
2018-06-10T08:42:10.355Z,97640.94
2018-06-10T08:44:45.918Z,97643.48
2018-06-10T08:47:21.416Z,97631.87
2018-06-10T08:49:57.414Z,97627.52
2018-06-10T08:52:33.220Z,97626.23
2018-06-10T08:55:11.247Z,97627.84
2018-06-10T08:57:47.507Z,97626.73
2018-06-10T09:00:23.018Z,97620.09
2018-06-10T09:03:06.528Z,97622.43
2018-06-10T09:05:42.448Z,97616.11
2018-06-10T09:08:18.576Z,97622.97
2018-06-10T09:10:56.346Z,97615.09
2018-06-10T09:13:38.651Z,97621.58
2018-06-10T09:16:22.614Z,97616.54
2018-06-10T09:18:59.546Z,97618.28
2018-06-10T09:21:36.003Z,97611.69
2018-06-10T09:24:12.451Z,97616.56
2018-06-10T09:26:48.598Z,97612.94
2018-06-10T09:29:25.376Z,97608.33
2018-06-10T09:32:08.288Z,97615.73
2018-06-10T09:34:44.645Z,97609.25
2018-06-10T09:37:20.624Z,97621.78
2018-06-10T09:39:56.300Z,97619.48
2018-06-10T09:42:32.220Z,97617.75
2018-06-10T09:45:11.014Z,97622.33
2018-06-10T09:47:55.364Z,97609.21
2018-06-10T09:50:36.166Z,97612.61
2018-06-10T09:53:11.812Z,97603.19
2018-06-10T09:55:47.508Z,97604.73
2018-06-10T09:58:25.530Z,97610.58
2018-06-10T10:01:01.528Z,97605.39
2018-06-10T10:03:37.096Z,97601.25
2018-06-10T10:06:13.210Z,97599.39
2018-06-10T10:08:50.659Z,97606.55
2018-06-10T10:11:27.162Z,97611.93
2018-06-10T10:14:02.548Z,97603.27
2018-06-10T10:16:38.197Z,97596.02
2018-06-10T10:19:13.798Z,97597.67
2018-06-10T10:21:51.044Z,97593.30
2018-06-10T10:24:26.542Z,97597.16
2018-06-10T10:27:02.216Z,97599.42
2018-06-10T10:29:37.919Z,97592.85
2018-06-10T10:32:13.616Z,97591.16
2018-06-10T10:34:49.329Z,97588.83
2018-06-10T10:37:25.303Z,97586.88
2018-06-10T10:40:01.398Z,97595.25
2018-06-10T10:42:39.729Z,97597.41
2018-06-10T10:45:19.060Z,97579.83
2018-06-10T10:47:54.688Z,97593.23
2018-06-10T10:50:30.088Z,97582.41
2018-06-10T10:53:05.619Z,97578.71
2018-06-10T10:55:41.384Z,97586.89
2018-06-10T10:58:17.394Z,97579.92
2018-06-10T11:00:53.212Z,97583.03
2018-06-10T11:03:29.213Z,97582.75
2018-06-10T11:06:05.350Z,97592.19
2018-06-10T11:08:41.420Z,97591.02
2018-06-10T11:11:17.387Z,97579.02
2018-06-10T11:13:53.225Z,97589.66
2018-06-10T11:16:30.103Z,97583.65
2018-06-10T11:19:09.299Z,97580.19
2018-06-10T11:21:44.852Z,97576.42
2018-06-10T11:24:20.968Z,97579.46
2018-06-10T11:26:57.220Z,97561.61
2018-06-10T11:29:32.810Z,97567.44
2018-06-10T11:32:09.427Z,97558.57
2018-06-10T11:34:47.457Z,97551.02
2018-06-10T11:37:25.426Z,97544.10
2018-06-10T11:40:02.389Z,97547.11
2018-06-10T11:42:39.369Z,97546.73
2018-06-10T11:45:18.316Z,97538.63
2018-06-10T11:47:57.218Z,97536.91
2018-06-10T11:50:34.924Z,97545.70
2018-06-10T11:53:12.546Z,97543.81
2018-06-10T11:55:51.898Z,97544.48
2018-06-10T11:58:29.526Z,97555.14
2018-06-10T12:01:06.947Z,97546.67
2018-06-10T12:03:44.299Z,97544.70
2018-06-10T12:06:19.946Z,97535.23
2018-06-10T12:08:55.525Z,97528.83
2018-06-10T12:11:31.410Z,97540.69
2018-06-10T12:14:07.010Z,97546.05
2018-06-10T12:16:43.242Z,97542.38
2018-06-10T12:19:19.439Z,97544.83
2018-06-10T12:21:55.197Z,97538.55
2018-06-10T12:24:31.145Z,97550.75
2018-06-10T12:27:06.729Z,97545.52
2018-06-10T12:29:42.946Z,97536.89
2018-06-10T12:32:18.495Z,97541.17
2018-06-10T12:34:54.117Z,97554.33
2018-06-10T12:37:29.841Z,97533.21
2018-06-10T12:40:06.221Z,97530.13
2018-06-10T12:42:42.597Z,97528.17
2018-06-10T12:45:18.351Z,97516.89
2018-06-10T12:47:54.239Z,97531.70
2018-06-10T12:50:32.339Z,97520.72
2018-06-10T12:53:08.255Z,97522.20
2018-06-10T12:55:43.973Z,97513.44
2018-06-10T12:58:19.500Z,97514.28
2018-06-10T13:00:55.466Z,97519.14
2018-06-10T13:03:31.395Z,97528.59
2018-06-10T13:06:07.993Z,97517.00
2018-06-10T13:08:44.284Z,97518.73
2018-06-10T13:11:20.826Z,97511.59
2018-06-10T13:13:59.214Z,97515.89
2018-06-10T13:16:35.288Z,97520.44
2018-06-10T13:19:12.152Z,97525.46
2018-06-10T13:21:48.177Z,97517.14
2018-06-10T13:24:23.984Z,97509.05
2018-06-10T13:27:00.538Z,97503.77
2018-06-10T13:29:36.222Z,97508.77
2018-06-10T13:32:12.460Z,97518.80
2018-06-10T13:34:48.700Z,97522.50
2018-06-10T13:37:25.306Z,97512.11
2018-06-10T13:40:02.419Z,97508.52
2018-06-10T13:42:41.202Z,97508.70
2018-06-10T13:45:20.258Z,97496.26
2018-06-10T13:47:56.526Z,97502.79
2018-06-10T13:50:33.584Z,97504.69
2018-06-10T13:53:10.500Z,97490.38
2018-06-10T13:55:48.399Z,97499.23
2018-06-10T13:58:28.327Z,97492.16
2018-06-10T14:01:05.192Z,97483.38
2018-06-10T14:03:43.323Z,97494.42
2018-06-10T14:06:21.351Z,97484.06
2018-06-10T14:09:02.176Z,97493.37
2018-06-10T14:11:40.304Z,97481.05
2018-06-10T14:14:21.062Z,97472.64
2018-06-10T14:17:02.219Z,97463.22
2018-06-10T14:19:39.374Z,97466.89
2018-06-10T14:22:20.492Z,97474.54
2018-06-10T14:24:57.016Z,97466.16
2018-06-10T14:27:36.372Z,97454.34
2018-06-10T14:30:15.548Z,97437.67
2018-06-10T14:32:54.858Z,97466.56
2018-06-10T14:35:30.527Z,97451.36
2018-06-10T14:38:06.926Z,97454.55
2018-06-10T14:40:42.492Z,97447.92
2018-06-10T14:43:18.545Z,97455.24
2018-06-10T14:45:54.591Z,97458.52
2018-06-10T14:48:30.831Z,97443.48
2018-06-10T14:51:11.047Z,97447.08
2018-06-10T14:53:52.113Z,97435.33
2018-06-10T14:56:36.869Z,97445.44
2018-06-10T14:59:19.340Z,97452.48
2018-06-10T15:02:04.620Z,97441.27
2018-06-10T15:04:42.877Z,97448.33
2018-06-10T15:07:20.401Z,97448.53
2018-06-10T15:09:58.365Z,97438.28
2018-06-10T15:12:35.611Z,97447.06
2018-06-10T15:15:11.871Z,97444.41
2018-06-10T15:17:48.063Z,97434.18
2018-06-10T15:20:26.359Z,97440.54
2018-06-10T15:23:04.144Z,97445.42
2018-06-10T15:25:41.509Z,97432.70
2018-06-10T15:28:20.191Z,97423.37
2018-06-10T15:30:57.549Z,97431.66
2018-06-10T15:33:35.047Z,97430.41
2018-06-10T15:36:12.683Z,97435.27
2018-06-10T15:38:53.887Z,97442.78
2018-06-10T15:41:35.531Z,97436.34
2018-06-10T15:44:13.951Z,97432.14
2018-06-10T15:47:04.391Z,97429.60
2018-06-10T15:49:46.125Z,97430.95
2018-06-10T15:52:34.064Z,97435.16
2018-06-10T15:55:16.332Z,97433.30
2018-06-10T15:57:57.430Z,97443.01
2018-06-10T16:00:36.748Z,97437.26
2018-06-10T16:03:15.522Z,97440.37
2018-06-10T16:05:53.212Z,97427.77
2018-06-10T16:08:33.823Z,97413.44
2018-06-10T16:11:17.556Z,97434.17
2018-06-10T16:13:53.433Z,97440.68
2018-06-10T16:16:31.126Z,97433.16
2018-06-10T16:19:08.177Z,97437.84
2018-06-10T16:21:46.173Z,97428.12
2018-06-10T16:24:26.654Z,97431.84
2018-06-10T16:27:06.142Z,97433.48
2018-06-10T16:29:43.028Z,97434.74
2018-06-10T16:32:20.950Z,97439.84
2018-06-10T16:34:58.663Z,97432.97
2018-06-10T16:37:36.198Z,97445.79
2018-06-10T16:40:15.126Z,97447.27
2018-06-10T16:43:16.191Z,97444.59
2018-06-10T16:45:54.224Z,97442.09
2018-06-10T16:48:32.087Z,97442.26
2018-06-10T16:51:10.567Z,97436.08
2018-06-10T16:53:53.774Z,97435.42
2018-06-10T16:56:32.484Z,97434.30
2018-06-10T16:59:11.968Z,97446.20
2018-06-10T17:01:49.791Z,97447.58
2018-06-10T17:04:25.996Z,97444.76
2018-06-10T17:07:01.946Z,97442.54
2018-06-10T17:09:40.036Z,97450.77
2018-06-10T17:12:15.632Z,97444.91
2018-06-10T17:14:51.718Z,97458.90
2018-06-10T17:17:27.776Z,97455.45
2018-06-10T17:20:04.338Z,97463.33
2018-06-10T17:22:39.813Z,97458.95
2018-06-10T17:25:15.950Z,97456.94
2018-06-10T17:27:51.540Z,97459.97
2018-06-10T17:30:28.807Z,97469.13
2018-06-10T17:33:05.954Z,97467.70
2018-06-10T17:35:46.149Z,97470.45
2018-06-10T17:38:21.615Z,97463.44
2018-06-10T17:40:57.853Z,97457.31
2018-06-10T17:43:36.531Z,97466.56
2018-06-10T17:46:12.891Z,97453.73
2018-06-10T17:48:49.485Z,97460.48
2018-06-10T17:51:29.637Z,97460.48
2018-06-10T17:54:17.481Z,97463.27
2018-06-10T17:57:08.275Z,97462.56
2018-06-10T17:59:52.436Z,97469.81
2018-06-10T18:02:41.627Z,97472.25
2018-06-10T18:05:20.729Z,97464.31
2018-06-10T18:07:56.857Z,97464.16
2018-06-10T18:10:36.138Z,97474.11
2018-06-10T18:13:15.919Z,97480.21
2018-06-10T18:15:53.869Z,97476.76
2018-06-10T18:18:31.915Z,97474.92
2018-06-10T18:21:16.589Z,97471.92
2018-06-10T18:24:30.523Z,97475.63
2018-06-10T18:27:15.580Z,97467.11
2018-06-10T18:29:55.236Z,97475.27
2018-06-10T18:32:35.065Z,97463.25
2018-06-10T18:35:12.055Z,97464.44
2018-06-10T18:37:48.547Z,97465.20
2018-06-10T18:40:27.662Z,97467.16
2018-06-10T18:43:06.417Z,97466.80
2018-06-10T18:45:48.354Z,97462.37
2018-06-10T18:48:24.447Z,97455.25
2018-06-10T18:51:00.835Z,97462.59
2018-06-10T18:53:36.716Z,97467.48
2018-06-10T18:56:12.447Z,97468.48
2018-06-10T18:58:48.400Z,97464.70
2018-06-10T19:01:24.852Z,97469.59
2018-06-10T19:04:00.917Z,97472.07
2018-06-10T19:06:37.567Z,97466.75
2018-06-10T19:09:14.120Z,97469.25
2018-06-10T19:11:49.762Z,97469.12
2018-06-10T19:14:25.602Z,97471.45
2018-06-10T19:17:02.192Z,97475.59
2018-06-10T19:19:39.340Z,97472.28
2018-06-10T19:22:15.447Z,97481.92
2018-06-10T19:24:51.921Z,97486.25
2018-06-10T19:27:28.165Z,97488.72
2018-06-10T19:30:03.633Z,97487.72
2018-06-10T19:32:39.101Z,97484.20
2018-06-10T19:35:14.532Z,97487.96
2018-06-10T19:37:50.071Z,97489.30
2018-06-10T19:40:25.728Z,97493.28
2018-06-10T19:43:01.827Z,97492.80
2018-06-10T19:45:37.850Z,97496.11
2018-06-10T19:48:14.052Z,97504.74
2018-06-10T19:50:50.683Z,97511.52
2018-06-10T19:53:26.178Z,97513.39
2018-06-10T19:56:01.954Z,97520.20
2018-06-10T19:58:38.850Z,97527.33
2018-06-10T20:01:15.189Z,97533.88
2018-06-10T20:03:50.989Z,97536.73
2018-06-10T20:06:28.432Z,97540.26
2018-06-10T20:09:04.996Z,97545.08
2018-06-10T20:11:41.381Z,97551.15
2018-06-10T20:14:17.620Z,97557.30
2018-06-10T20:16:53.566Z,97558.35
2018-06-10T20:19:30.975Z,97557.38
2018-06-10T20:22:07.797Z,97560.95
2018-06-10T20:24:44.462Z,97558.85
2018-06-10T20:27:22.289Z,97561.54
2018-06-10T20:29:58.295Z,97562.37
2018-06-10T20:32:35.361Z,97566.86
2018-06-10T20:35:11.654Z,97569.37
2018-06-10T20:37:48.470Z,97566.70
2018-06-10T20:40:24.914Z,97565.87
2018-06-10T20:43:01.181Z,97577.38
2018-06-10T20:45:37.577Z,97582.70
2018-06-10T20:48:14.590Z,97589.36
2018-06-10T20:50:50.283Z,97589.67
2018-06-10T20:53:27.736Z,97596.02
2018-06-10T20:56:04.732Z,97596.48
2018-06-10T20:58:40.523Z,97594.66
2018-06-10T21:01:17.595Z,97593.27
2018-06-10T21:03:54.533Z,97601.89
2018-06-10T21:06:30.408Z,97600.25
2018-06-10T21:09:08.221Z,97597.22
2018-06-10T21:11:44.989Z,97598.62
2018-06-10T21:14:22.259Z,97597.02
2018-06-10T21:16:58.455Z,97595.57
2018-06-10T21:19:34.456Z,97600.03
2018-06-10T21:22:11.019Z,97604.92
2018-06-10T21:24:46.851Z,97598.26
2018-06-10T21:27:23.916Z,97609.63
2018-06-10T21:30:00.208Z,97609.27
2018-06-10T21:32:36.038Z,97603.23
2018-06-10T21:35:11.718Z,97601.15
2018-06-10T21:37:47.735Z,97603.03
2018-06-10T21:40:23.645Z,97603.41
2018-06-10T21:42:59.091Z,97602.84
2018-06-10T21:45:34.562Z,97607.25
2018-06-10T21:48:10.355Z,97607.14
2018-06-10T21:50:46.106Z,97608.22
2018-06-10T21:53:21.584Z,97611.08
2018-06-10T21:55:57.082Z,97613.92
2018-06-10T21:58:32.470Z,97617.02
2018-06-10T22:01:08.767Z,97618.52
2018-06-10T22:03:44.379Z,97613.38
2018-06-10T22:06:20.503Z,97615.73
2018-06-10T22:08:56.139Z,97624.17
2018-06-10T22:11:31.783Z,97622.98
2018-06-10T22:14:07.791Z,97617.31
2018-06-10T22:16:43.597Z,97618.41
2018-06-10T22:19:19.466Z,97618.66
2018-06-10T22:21:55.287Z,97618.33
2018-06-10T22:24:30.858Z,97618.05
2018-06-10T22:27:06.603Z,97621.66
2018-06-10T22:29:42.386Z,97626.07
2018-06-10T22:32:18.577Z,97630.19
2018-06-10T22:34:54.206Z,97625.45
2018-06-10T22:37:30.749Z,97629.78
2018-06-10T22:40:06.239Z,97631.89
2018-06-10T22:42:41.669Z,97625.13
2018-06-10T22:45:17.741Z,97628.27
2018-06-10T22:47:53.431Z,97629.64
2018-06-10T22:50:29.503Z,97629.59
2018-06-10T22:55:17.541Z,97623.72
2018-06-10T22:57:53.214Z,97625.31
2018-06-10T23:00:29.169Z,97615.56
2018-06-10T23:03:04.964Z,97614.72
2018-06-10T23:05:40.467Z,97614.87
2018-06-10T23:08:17.801Z,97610.20
2018-06-10T23:10:53.558Z,97613.05
2018-06-10T23:13:29.455Z,97606.66
2018-06-10T23:16:05.278Z,97595.72
2018-06-10T23:18:40.527Z,97593.47
2018-06-10T23:21:16.196Z,97597.38
2018-06-10T23:23:51.696Z,97593.19
2018-06-10T23:26:27.372Z,97596.52
2018-06-10T23:29:03.124Z,97604.19
2018-06-10T23:31:38.968Z,97604.67
2018-06-10T23:34:14.507Z,97610.52
2018-06-10T23:36:50.042Z,97607.35
2018-06-10T23:39:25.837Z,97597.38
2018-06-10T23:42:01.972Z,97602.89
2018-06-10T23:44:37.612Z,97607.22
2018-06-10T23:47:13.264Z,97604.02
2018-06-10T23:49:48.970Z,97594.89
2018-06-10T23:52:24.816Z,97597.80
2018-06-10T23:55:00.472Z,97592.13
2018-06-10T23:57:36.181Z,97594.95
